Time;durP1;ratioP1;P1;durP2;ratioP2;P2;SDS_P1;SDS_P2;PMS_P1;PMS_P2;Temp;Humidity;BMP_temperature;BMP_pressure;BME280_temperature;BME280_humidity;BME280_pressure;Samples;Min_cycle;Max_cycle;Signal;HPM_P1;HPM_P2
2022/09/15 00:01:20;;;;;;;4.28;1.75;;;14.40;99.60;;;;;;5051843;28;20080;-36
2022/09/15 00:03:48;;;;;;;6.20;1.88;;;14.30;99.60;;;;;;5046508;28;20040;-46
2022/09/15 00:06:15;;;;;;;2.65;1.50;;;14.30;99.70;;;;;;5066594;28;20076;-45
2022/09/15 00:08:42;;;;;;;4.15;1.80;;;14.30;99.90;;;;;;5053857;28;20109;-43
2022/09/15 00:11:09;;;;;;;4.55;2.05;;;14.30;99.90;;;;;;5058635;28;20080;-44
2022/09/15 00:13:37;;;;;;;4.85;1.70;;;14.30;99.90;;;;;;5066779;28;20098;-38
2022/09/15 00:16:04;;;;;;;6.78;2.10;;;14.30;99.90;;;;;;5067652;28;20044;-45
2022/09/15 00:18:31;;;;;;;3.92;2.10;;;14.30;99.90;;;;;;5047043;28;20132;-45
2022/09/15 00:20:59;;;;;;;2.88;1.55;;;14.30;99.90;;;;;;5070733;28;20080;-46
2022/09/15 00:23:25;;;;;;;2.88;1.90;;;14.30;99.90;;;;;;5064047;28;20083;-46
2022/09/15 00:25:52;;;;;;;4.97;2.10;;;14.30;99.90;;;;;;5065795;28;20048;-45
2022/09/15 00:28:21;;;;;;;5.80;2.42;;;14.30;99.90;;;;;;5071064;28;20080;-44
2022/09/15 00:30:49;;;;;;;4.65;2.33;;;14.30;99.90;;;;;;5059765;28;20048;-45
2022/09/15 00:33:16;;;;;;;4.97;2.40;;;14.30;99.90;;;;;;5032065;28;20136;-49
2022/09/15 00:35:43;;;;;;;6.13;2.95;;;14.30;99.90;;;;;;5049963;28;20088;-44
2022/09/15 00:38:12;;;;;;;5.57;2.40;;;14.30;99.90;;;;;;5067422;28;20131;-46
2022/09/15 00:40:43;;;;;;;6.40;3.70;;;14.40;99.90;;;;;;5060855;28;20504;-44
2022/09/15 00:43:10;;;;;;;10.40;2.80;;;14.30;99.90;;;;;;5068758;28;20123;-43
2022/09/15 00:45:37;;;;;;;5.43;2.95;;;14.30;99.90;;;;;;5070395;28;20052;-44
2022/09/15 00:48:04;;;;;;;5.10;3.35;;;14.40;99.90;;;;;;5051007;28;20080;-47
2022/09/15 00:50:31;;;;;;;4.90;3.47;;;14.40;99.90;;;;;;5070369;28;20051;-45
2022/09/15 00:53:00;;;;;;;5.13;3.03;;;14.40;99.90;;;;;;5051070;28;20044;-47
2022/09/15 00:55:29;;;;;;;5.60;3.10;;;14.40;99.90;;;;;;5049210;28;20140;-45
2022/09/15 00:57:58;;;;;;;13.23;4.60;;;14.40;99.90;;;;;;5028838;28;20044;-44
2022/09/15 01:00:26;;;;;;;7.53;3.35;;;14.40;99.90;;;;;;5033456;28;20045;-45
2022/09/15 01:02:53;;;;;;;6.75;3.67;;;14.50;99.90;;;;;;5045550;28;20131;-50
2022/09/15 01:05:21;;;;;;;8.95;4.32;;;14.50;99.90;;;;;;5028080;28;20145;-47
2022/09/15 01:07:50;;;;;;;7.50;3.97;;;14.50;99.90;;;;;;5048165;28;20454;-51
2022/09/15 01:10:22;;;;;;;11.27;3.55;;;14.50;99.90;;;;;;5028940;28;20532;-45
2022/09/15 01:12:50;;;;;;;8.32;3.35;;;14.50;99.90;;;;;;5054751;28;20059;-49
2022/09/15 01:15:17;;;;;;;7.25;3.25;;;14.60;99.90;;;;;;5045797;28;20140;-45
2022/09/15 01:17:54;;;;;;;6.43;2.92;;;14.60;99.90;;;;;;5034284;28;20466;-46
2022/09/15 01:20:44;;;;;;;7.15;3.40;;;14.60;99.90;;;;;;5048888;28;20084;-46
2022/09/15 01:23:43;;;;;;;4.90;2.35;;;14.70;99.90;;;;;;5030309;28;20100;-47
2022/09/15 01:26:38;;;;;;;7.00;2.20;;;14.70;99.90;;;;;;5027143;28;20118;-46
2022/09/15 01:29:36;;;;;;;6.95;2.30;;;14.70;99.90;;;;;;5026948;28;20534;-44
2022/09/15 01:34:53;;;;;;;9.65;2.25;;;14.70;99.90;;;;;;5038757;28;20053;-49
2022/09/15 01:37:22;;;;;;;5.63;1.75;;;14.70;99.90;;;;;;5042361;28;20941;-48
2022/09/15 01:39:49;;;;;;;4.38;1.52;;;14.70;99.90;;;;;;5044949;28;20055;-48
2022/09/15 01:42:15;;;;;;;6.85;1.70;;;14.70;99.90;;;;;;5033336;28;20056;-45
2022/09/15 01:44:45;;;;;;;7.30;1.70;;;14.80;99.90;;;;;;5051373;28;20136;-46
2022/09/15 01:47:13;;;;;;;5.22;1.52;;;14.80;99.90;;;;;;5033455;28;20045;-46
2022/09/15 01:49:42;;;;;;;9.38;2.03;;;14.80;99.90;;;;;;5028593;28;20508;-48
2022/09/15 01:52:09;;;;;;;3.83;1.45;;;14.80;99.90;;;;;;5053195;28;20139;-48
2022/09/15 01:54:37;;;;;;;4.75;1.33;;;14.80;99.90;;;;;;5018138;28;20133;-47
2022/09/15 01:57:03;;;;;;;6.60;1.63;;;14.80;99.90;;;;;;5044220;28;20055;-46
2022/09/15 01:59:30;;;;;;;7.65;1.40;;;14.80;99.90;;;;;;5054170;28;20127;-46
2022/09/15 02:01:59;;;;;;;6.18;1.40;;;14.80;99.90;;;;;;5070420;28;20183;-46
2022/09/15 02:04:28;;;;;;;4.50;1.40;;;14.80;99.90;;;;;;5069012;28;20472;-45
2022/09/15 02:06:56;;;;;;;4.97;1.30;;;14.80;99.90;;;;;;5064533;28;20083;-47
2022/09/15 02:09:24;;;;;;;5.20;1.50;;;14.80;99.90;;;;;;5059488;28;20062;-47
2022/09/15 02:11:54;;;;;;;7.50;1.58;;;14.80;99.90;;;;;;5071171;28;20139;-44
2022/09/15 02:14:25;;;;;;;5.18;1.48;;;14.80;99.90;;;;;;5072284;28;20076;-48
2022/09/15 02:16:52;;;;;;;10.93;1.95;;;14.80;99.90;;;;;;5067913;28;20156;-46
2022/09/15 02:19:30;;;;;;;7.65;1.92;;;14.80;99.90;;;;;;5072067;28;20135;-48
2022/09/15 02:21:59;;;;;;;6.47;1.63;;;14.80;99.90;;;;;;5056629;28;20055;-47
2022/09/15 02:24:29;;;;;;;9.63;1.70;;;14.70;99.90;;;;;;5065923;28;20075;-41
2022/09/15 02:26:55;;;;;;;7.40;1.52;;;14.70;99.90;;;;;;5074129;28;20059;-48
2022/09/15 02:29:23;;;;;;;7.55;1.65;;;14.70;99.90;;;;;;5074325;28;20044;-46
2022/09/15 02:31:51;;;;;;;5.95;1.50;;;14.70;99.90;;;;;;5074231;28;20053;-50
2022/09/15 02:34:19;;;;;;;9.95;1.60;;;14.70;99.90;;;;;;5065600;28;20082;-47
2022/09/15 02:36:47;;;;;;;10.10;1.60;;;14.70;99.90;;;;;;5048051;28;20049;-43
2022/09/15 02:39:15;;;;;;;8.48;1.50;;;14.60;99.90;;;;;;5070357;28;20076;-47
2022/09/15 02:41:42;;;;;;;6.60;1.50;;;14.70;99.90;;;;;;5069225;28;20147;-47
2022/09/15 02:44:09;;;;;;;8.48;1.80;;;14.60;99.90;;;;;;5072121;28;20098;-47
2022/09/15 02:46:36;;;;;;;8.88;1.42;;;14.60;99.90;;;;;;5072507;28;20579;-47
2022/09/15 02:49:03;;;;;;;6.70;1.48;;;14.60;99.90;;;;;;5073685;28;20048;-47
2022/09/15 02:51:29;;;;;;;3.60;1.23;;;14.50;99.90;;;;;;5061213;28;20056;-49
2022/09/15 02:53:57;;;;;;;6.78;1.30;;;14.60;99.90;;;;;;5069358;28;20404;-50
2022/09/15 02:56:24;;;;;;;7.22;1.23;;;14.60;99.90;;;;;;5059553;28;20131;-46
2022/09/15 02:58:51;;;;;;;6.75;1.40;;;14.60;99.90;;;;;;5065046;28;20408;-46
2022/09/15 03:01:18;;;;;;;6.63;1.63;;;14.50;99.90;;;;;;5068159;28;20084;-48
2022/09/15 03:03:45;;;;;;;8.38;1.65;;;14.60;99.90;;;;;;5069756;28;20127;-51
2022/09/15 03:06:18;;;;;;;6.38;1.13;;;14.50;99.90;;;;;;5043494;28;20079;-49
2022/09/15 03:08:48;;;;;;;6.22;1.88;;;14.50;99.90;;;;;;5072346;28;20048;-48
2022/09/15 03:11:18;;;;;;;4.82;1.08;;;14.60;99.90;;;;;;5066870;28;20131;-48
2022/09/15 03:13:45;;;;;;;6.75;1.02;;;14.60;99.90;;;;;;5053179;28;20400;-46
2022/09/15 03:16:12;;;;;;;5.50;1.60;;;14.60;99.90;;;;;;5059565;28;20130;-49
2022/09/15 03:18:39;;;;;;;10.38;1.50;;;14.60;99.90;;;;;;5067338;28;20123;-46
2022/09/15 03:21:07;;;;;;;4.68;1.33;;;14.60;99.90;;;;;;5066803;28;20128;-45
2022/09/15 03:23:34;;;;;;;5.28;1.63;;;14.60;99.90;;;;;;5052116;28;20373;-46
2022/09/15 03:26:01;;;;;;;5.65;1.45;;;14.60;99.90;;;;;;5065492;28;20080;-46
2022/09/15 03:28:29;;;;;;;3.85;1.20;;;14.60;99.90;;;;;;5054955;28;20080;-48
2022/09/15 03:30:57;;;;;;;11.93;1.70;;;14.60;99.90;;;;;;5048915;28;20053;-47
2022/09/15 03:33:24;;;;;;;4.53;1.52;;;14.60;99.90;;;;;;5045982;28;20393;-45
2022/09/15 03:35:51;;;;;;;7.25;1.52;;;14.70;99.90;;;;;;5062862;28;20381;-47
2022/09/15 03:38:18;;;;;;;6.43;1.38;;;14.70;99.90;;;;;;5062332;28;20131;-44
2022/09/15 03:40:45;;;;;;;6.10;1.38;;;14.60;99.90;;;;;;5068126;28;20418;-44
2022/09/15 03:43:12;;;;;;;6.05;1.33;;;14.60;99.90;;;;;;5039542;28;20048;-44
2022/09/15 03:45:40;;;;;;;5.22;1.40;;;14.70;99.90;;;;;;5058663;28;20037;-42
2022/09/15 03:48:07;;;;;;;5.13;1.42;;;14.70;99.90;;;;;;5064071;28;20551;-45
2022/09/15 03:50:34;;;;;;;6.00;1.45;;;14.60;99.90;;;;;;5058960;28;20061;-46
2022/09/15 03:53:01;;;;;;;8.27;1.88;;;14.70;99.90;;;;;;5056663;28;20132;-44
2022/09/15 03:55:28;;;;;;;4.97;1.20;;;14.70;99.90;;;;;;5050279;28;20102;-47
2022/09/15 03:57:54;;;;;;;7.50;1.92;;;14.70;99.90;;;;;;5033507;28;20077;-46
2022/09/15 04:00:21;;;;;;;3.40;1.17;;;14.60;99.90;;;;;;5051122;28;20128;-47
2022/09/15 04:02:49;;;;;;;5.03;1.38;;;14.60;99.90;;;;;;5063316;28;20041;-47
2022/09/15 04:05:16;;;;;;;7.72;1.40;;;14.70;99.90;;;;;;5067176;28;20174;-44
2022/09/15 04:07:43;;;;;;;6.35;1.52;;;14.70;99.90;;;;;;5053975;28;20498;-43
2022/09/15 04:10:10;;;;;;;5.90;1.33;;;14.70;99.90;;;;;;5068788;28;20053;-48
2022/09/15 04:12:36;;;;;;;5.28;1.20;;;14.70;99.90;;;;;;5045005;28;20059;-42
2022/09/15 04:15:04;;;;;;;6.80;1.30;;;14.70;99.90;;;;;;5060423;28;20424;-50
2022/09/15 04:17:30;;;;;;;5.97;1.52;;;14.70;99.90;;;;;;5046303;28;20068;-48
2022/09/15 04:20:02;;;;;;;6.38;1.75;;;14.70;99.90;;;;;;5064153;28;20130;-49
2022/09/15 04:22:30;;;;;;;5.10;1.08;;;14.70;99.90;;;;;;5046880;28;20550;-48
2022/09/15 04:24:57;;;;;;;7.85;1.35;;;14.60;99.90;;;;;;5041894;28;20459;-49
2022/09/15 04:27:24;;;;;;;6.45;1.60;;;14.60;99.90;;;;;;5066060;28;20094;-47
2022/09/15 04:29:51;;;;;;;7.68;1.48;;;14.60;99.90;;;;;;5060241;28;20460;-45
2022/09/15 04:32:18;;;;;;;7.03;1.30;;;14.60;99.90;;;;;;5058924;28;20045;-46
2022/09/15 04:34:44;;;;;;;8.48;1.27;;;14.60;99.90;;;;;;5069236;28;20433;-48
2022/09/15 04:37:12;;;;;;;4.95;1.00;;;14.60;99.90;;;;;;5043645;28;20461;-46
2022/09/15 04:39:39;;;;;;;8.25;1.85;;;14.60;99.90;;;;;;5044209;28;20218;-45
2022/09/15 04:42:06;;;;;;;7.07;1.65;;;14.60;99.90;;;;;;5043148;28;20085;-48
2022/09/15 04:44:33;;;;;;;5.68;1.33;;;14.60;99.90;;;;;;5064784;28;20561;-47
2022/09/15 04:47:00;;;;;;;5.25;1.00;;;14.60;99.90;;;;;;5036564;28;20180;-47
2022/09/15 04:49:27;;;;;;;8.48;1.40;;;14.50;99.90;;;;;;5070783;28;20087;-47
2022/09/15 04:51:54;;;;;;;8.98;1.65;;;14.50;99.90;;;;;;5067948;28;20041;-49
2022/09/15 04:54:23;;;;;;;8.05;1.90;;;14.50;99.90;;;;;;5050855;28;20076;-43
2022/09/15 04:56:49;;;;;;;6.13;1.63;;;14.50;99.90;;;;;;5050721;28;20758;-40
2022/09/15 04:59:17;;;;;;;10.45;1.70;;;14.50;99.90;;;;;;5064087;28;20045;-47
2022/09/15 05:01:44;;;;;;;4.55;1.25;;;14.50;99.90;;;;;;5046626;28;20135;-45
2022/09/15 05:04:10;;;;;;;10.48;1.75;;;14.50;99.90;;;;;;5066296;28;20136;-48
2022/09/15 05:06:37;;;;;;;8.00;1.40;;;14.40;99.90;;;;;;5063394;28;20476;-51
2022/09/15 05:09:05;;;;;;;6.93;1.23;;;14.40;99.90;;;;;;5062511;28;20083;-49
2022/09/15 05:11:33;;;;;;;6.20;1.20;;;14.40;99.90;;;;;;5071545;28;20496;-46
2022/09/15 05:14:00;;;;;;;6.00;1.15;;;14.40;99.90;;;;;;5062548;28;20164;-52
2022/09/15 05:16:28;;;;;;;7.07;1.40;;;14.40;99.90;;;;;;5050876;28;20051;-49
2022/09/15 05:18:55;;;;;;;7.53;1.35;;;14.30;99.90;;;;;;5061318;28;20102;-49
2022/09/15 05:21:22;;;;;;;9.57;1.95;;;14.30;99.90;;;;;;5069527;28;20518;-48
2022/09/15 05:23:50;;;;;;;8.07;1.80;;;14.30;99.90;;;;;;5068611;28;20061;-50
2022/09/15 05:26:18;;;;;;;5.68;1.50;;;14.30;99.90;;;;;;5040913;28;20041;-46
2022/09/15 05:28:46;;;;;;;8.35;1.73;;;14.30;99.90;;;;;;5071241;28;20090;-48
2022/09/15 05:31:14;;;;;;;6.72;1.38;;;14.30;99.90;;;;;;5071073;28;20117;-48
2022/09/15 05:33:40;;;;;;;7.80;1.77;;;14.30;99.90;;;;;;5075776;28;20606;-48
2022/09/15 05:36:07;;;;;;;6.78;1.48;;;14.30;99.90;;;;;;5074360;28;20135;-49
2022/09/15 05:38:34;;;;;;;6.97;1.63;;;14.30;99.90;;;;;;5075957;28;20095;-47
2022/09/15 05:41:04;;;;;;;9.70;1.52;;;14.30;99.90;;;;;;5075896;28;20091;-45
2022/09/15 05:43:31;;;;;;;12.00;1.30;;;14.30;99.90;;;;;;5058326;28;20136;-43
2022/09/15 05:45:59;;;;;;;6.15;1.35;;;14.30;99.90;;;;;;5075927;28;20452;-44
2022/09/15 05:48:26;;;;;;;11.30;1.98;;;14.30;99.90;;;;;;5073954;28;20048;-46
2022/09/15 05:50:53;;;;;;;10.50;2.30;;;14.30;99.90;;;;;;5058041;28;20443;-52
2022/09/15 05:53:20;;;;;;;6.05;1.20;;;14.40;99.90;;;;;;5075739;28;20056;-48
2022/09/15 05:55:47;;;;;;;10.60;1.35;;;14.40;99.90;;;;;;5057941;28;20133;-49
2022/09/15 05:58:14;;;;;;;11.85;1.55;;;14.40;99.90;;;;;;5053671;28;20081;-45
2022/09/15 06:00:41;;;;;;;8.35;1.48;;;14.40;99.90;;;;;;5067477;28;20504;-49
2022/09/15 06:03:10;;;;;;;8.25;1.25;;;14.40;99.90;;;;;;5075494;28;20091;-46
2022/09/15 06:05:36;;;;;;;6.60;1.48;;;14.50;99.90;;;;;;5057347;28;20092;-50
2022/09/15 06:08:03;;;;;;;7.40;1.52;;;14.50;99.90;;;;;;5054750;28;20187;-45
2022/09/15 06:10:30;;;;;;;9.73;1.90;;;14.50;99.90;;;;;;5075520;28;20107;-46
2022/09/15 06:12:57;;;;;;;9.65;1.60;;;14.60;99.90;;;;;;5057440;28;20429;-49
2022/09/15 06:15:23;;;;;;;6.82;1.60;;;14.70;99.90;;;;;;5053293;28;20491;-48
2022/09/15 06:17:50;;;;;;;7.75;1.70;;;14.70;99.90;;;;;;5057002;28;20125;-44
2022/09/15 06:20:19;;;;;;;8.35;1.77;;;14.80;99.90;;;;;;5057138;28;20084;-50
2022/09/15 06:22:46;;;;;;;13.27;1.63;;;14.90;99.90;;;;;;5057417;28;20389;-48
2022/09/15 06:25:13;;;;;;;11.63;2.22;;;14.90;99.90;;;;;;5064605;28;20049;-47
2022/09/15 06:27:40;;;;;;;8.55;1.40;;;15.00;99.90;;;;;;5066404;28;20094;-44
2022/09/15 06:30:08;;;;;;;9.88;2.30;;;15.10;99.90;;;;;;5074854;28;20135;-50
2022/09/15 06:32:35;;;;;;;9.45;1.70;;;15.10;99.90;;;;;;5057251;28;20127;-48
2022/09/15 06:35:05;;;;;;;7.65;1.58;;;15.10;99.90;;;;;;5082831;28;20091;-47
2022/09/15 06:37:33;;;;;;;10.87;1.50;;;15.10;99.90;;;;;;5074872;28;20044;-46
2022/09/15 06:40:00;;;;;;;11.48;1.70;;;15.10;99.90;;;;;;5074707;28;20560;-51
2022/09/15 06:42:27;;;;;;;9.15;1.67;;;15.10;99.90;;;;;;5074366;28;20519;-46
2022/09/15 06:44:57;;;;;;;10.70;1.52;;;15.10;99.90;;;;;;5054754;28;20075;-43
2022/09/15 06:47:24;;;;;;;8.50;1.60;;;15.20;99.70;;;;;;5074403;28;20063;-44
2022/09/15 06:49:52;;;;;;;8.40;1.40;;;15.20;99.70;;;;;;5074679;28;20049;-45
2022/09/15 06:52:19;;;;;;;9.10;1.67;;;15.20;99.60;;;;;;5053664;28;20049;-48
2022/09/15 06:54:48;;;;;;;11.10;1.50;;;15.40;99.50;;;;;;5057005;28;20561;-50
2022/09/15 06:57:14;;;;;;;8.35;1.40;;;15.40;99.50;;;;;;5074271;28;20106;-49
2022/09/15 06:59:41;;;;;;;9.90;1.92;;;15.40;99.40;;;;;;5056613;28;20045;-48
2022/09/15 07:02:09;;;;;;;10.32;1.65;;;15.50;99.30;;;;;;5064967;28;20083;-47
2022/09/15 07:04:36;;;;;;;8.60;1.33;;;15.50;99.60;;;;;;5071447;28;20131;-49
2022/09/15 07:07:03;;;;;;;11.63;1.80;;;15.60;99.10;;;;;;5056181;28;20480;-51
2022/09/15 07:09:30;;;;;;;8.13;1.52;;;15.60;99.10;;;;;;5074402;28;20098;-48
2022/09/15 07:11:58;;;;;;;6.85;1.48;;;15.60;99.10;;;;;;5074014;28;20044;-47
2022/09/15 07:14:25;;;;;;;6.50;1.40;;;15.60;98.90;;;;;;5070516;28;20063;-50
2022/09/15 07:16:52;;;;;;;9.68;1.30;;;15.70;98.90;;;;;;5067296;28;20129;-45
2022/09/15 07:19:18;;;;;;;8.80;1.23;;;15.70;98.70;;;;;;5074166;28;20451;-44
2022/09/15 07:21:45;;;;;;;8.88;1.52;;;15.70;98.70;;;;;;5053884;28;20053;-47
2022/09/15 07:24:13;;;;;;;9.05;1.60;;;15.70;98.80;;;;;;5073122;28;20057;-51
2022/09/15 07:26:40;;;;;;;12.13;1.50;;;15.80;98.70;;;;;;5047950;28;20429;-50
2022/09/15 07:29:09;;;;;;;8.05;1.60;;;15.80;98.40;;;;;;5066337;28;20045;-47
2022/09/15 07:31:36;;;;;;;10.10;1.52;;;15.80;98.40;;;;;;5071530;28;20087;-49
2022/09/15 07:34:03;;;;;;;7.30;1.90;;;15.90;98.30;;;;;;5073721;28;20136;-48
2022/09/15 07:36:30;;;;;;;8.32;1.58;;;15.90;98.20;;;;;;5056004;28;20044;-47
2022/09/15 07:38:57;;;;;;;7.70;1.33;;;16.00;98.30;;;;;;5072782;28;20059;-47
2022/09/15 07:41:25;;;;;;;9.32;1.60;;;16.00;98.30;;;;;;5073494;28;20106;-48
2022/09/15 07:43:53;;;;;;;7.05;1.17;;;16.20;98.20;;;;;;5073686;28;20052;-50
2022/09/15 07:46:22;;;;;;;14.20;2.30;;;16.30;98.00;;;;;;5073133;28;20560;-50
2022/09/15 07:48:49;;;;;;;8.88;1.52;;;16.40;97.90;;;;;;5072356;28;20453;-46
2022/09/15 07:51:16;;;;;;;6.45;1.00;;;16.50;97.80;;;;;;5055499;28;20135;-48
2022/09/15 07:53:43;;;;;;;9.52;1.10;;;16.60;97.50;;;;;;5072150;28;20091;-51
2022/09/15 07:56:10;;;;;;;9.20;1.25;;;16.60;97.40;;;;;;5072414;28;20519;-48
2022/09/15 07:58:37;;;;;;;7.57;1.38;;;16.60;97.30;;;;;;5073137;28;20155;-49
2022/09/15 08:01:04;;;;;;;12.02;1.63;;;16.60;97.30;;;;;;5055281;28;20045;-47
2022/09/15 08:03:32;;;;;;;9.48;1.10;;;16.60;97.30;;;;;;5055530;28;20500;-47
2022/09/15 08:05:59;;;;;;;7.93;1.33;;;16.60;97.10;;;;;;5071526;28;20094;-45
2022/09/15 08:08:26;;;;;;;7.05;1.70;;;16.80;97.20;;;;;;5070990;28;20496;-45
2022/09/15 08:10:53;;;;;;;9.48;1.88;;;17.00;97.10;;;;;;5073032;28;20083;-49
2022/09/15 08:13:19;;;;;;;7.18;1.10;;;17.20;96.70;;;;;;5072800;28;20052;-46
2022/09/15 08:15:46;;;;;;;8.25;1.40;;;17.30;96.50;;;;;;5055016;28;20064;-45
2022/09/15 08:18:13;;;;;;;5.90;1.30;;;17.40;96.40;;;;;;5054163;28;20131;-50
2022/09/15 08:20:42;;;;;;;6.90;1.35;;;17.50;96.30;;;;;;5071141;28;20134;-47
2022/09/15 08:23:09;;;;;;;7.82;1.30;;;17.50;96.30;;;;;;5072795;28;20504;-51
2022/09/15 08:25:36;;;;;;;5.60;1.00;;;17.60;95.70;;;;;;5054761;28;20377;-50
2022/09/15 08:28:03;;;;;;;6.03;1.20;;;17.60;95.60;;;;;;5072702;28;20090;-49
2022/09/15 08:30:30;;;;;;;6.55;0.90;;;17.70;95.50;;;;;;5052858;28;20052;-49
2022/09/15 08:32:56;;;;;;;11.40;1.52;;;17.80;95.40;;;;;;5072845;28;20526;-48
2022/09/15 08:35:23;;;;;;;9.38;1.38;;;17.80;95.20;;;;;;5054798;28;20083;-51
2022/09/15 08:37:52;;;;;;;7.75;1.23;;;17.90;94.90;;;;;;5072713;28;20095;-52
2022/09/15 08:40:20;;;;;;;6.28;1.38;;;17.90;94.60;;;;;;5070881;28;20076;-48
2022/09/15 08:42:48;;;;;;;5.63;1.10;;;17.90;94.60;;;;;;5054819;28;20071;-50
2022/09/15 08:45:19;;;;;;;7.30;1.42;;;17.90;94.80;;;;;;5072600;28;20056;-48
2022/09/15 08:47:46;;;;;;;8.77;1.07;;;17.90;94.30;;;;;;5072827;28;20084;-50
2022/09/15 08:50:19;;;;;;;9.15;1.15;;;17.80;94.40;;;;;;5062331;28;20844;-47
2022/09/15 08:52:48;;;;;;;8.10;1.17;;;17.90;94.40;;;;;;5065210;28;20045;-47
2022/09/15 08:55:18;;;;;;;9.38;1.63;;;17.90;94.10;;;;;;5054388;28;20133;-48
2022/09/15 08:57:45;;;;;;;11.23;1.40;;;18.10;93.70;;;;;;5060812;28;20545;-50
2022/09/15 09:00:14;;;;;;;7.07;1.02;;;18.20;93.60;;;;;;5083272;28;20503;-49
2022/09/15 09:03:02;;;;;;;8.07;1.00;;;18.30;93.50;;;;;;5072492;28;20052;-45
2022/09/15 09:05:40;;;;;;;5.97;1.20;;;18.30;92.90;;;;;;5072402;28;20564;-48
2022/09/15 09:08:16;;;;;;;9.20;1.17;;;18.50;92.90;;;;;;5057661;28;20135;-51
2022/09/15 09:10:46;;;;;;;7.07;0.80;;;18.70;92.70;;;;;;5074886;28;20131;-50
2022/09/15 09:13:23;;;;;;;5.53;1.10;;;18.90;92.20;;;;;;5076625;28;20084;-50
2022/09/15 09:15:58;;;;;;;4.90;1.08;;;19.10;91.90;;;;;;5076448;28;20127;-45
2022/09/15 09:18:51;;;;;;;6.70;1.17;;;19.20;91.70;;;;;;5076341;28;20132;-50
2022/09/15 09:21:22;;;;;;;8.57;1.40;;;19.10;91.40;;;;;;5048747;28;20449;-48
2022/09/15 09:23:52;;;;;;;6.45;1.30;;;19.20;91.90;;;;;;5076456;28;20049;-52
2022/09/15 09:26:20;;;;;;;9.30;1.55;;;19.50;91.80;;;;;;5049153;28;20395;-50
2022/09/15 09:28:50;;;;;;;4.13;1.20;;;19.70;90.90;;;;;;5076058;28;20110;-51
2022/09/15 09:31:18;;;;;;;8.95;1.58;;;19.70;90.70;;;;;;5067005;28;20079;-46
2022/09/15 09:33:49;;;;;;;4.55;1.00;;;19.70;90.10;;;;;;5075941;28;20090;-47
2022/09/15 09:36:16;;;;;;;8.77;1.17;;;19.70;90.10;;;;;;5076108;28;20443;-50
2022/09/15 09:38:43;;;;;;;7.68;1.38;;;19.60;90.30;;;;;;5058131;28;20084;-49
2022/09/15 09:41:12;;;;;;;7.07;1.17;;;19.70;90.20;;;;;;5074826;28;20044;-49
2022/09/15 09:43:40;;;;;;;7.40;1.52;;;19.70;89.40;;;;;;5074505;28;20049;-49
2022/09/15 09:46:12;;;;;;;4.68;1.20;;;19.60;88.50;;;;;;5075601;28;20130;-47
2022/09/15 09:48:39;;;;;;;;;;;19.50;88.00;;;;;;5076404;28;20053;-46
2022/09/15 09:51:06;;;;;;;4.68;0.93;;;19.40;87.30;;;;;;5074826;28;20388;-50
2022/09/15 09:53:35;;;;;;;8.02;1.48;;;19.50;88.90;;;;;;5074720;28;20476;-46
2022/09/15 09:56:23;;;;;;;4.88;1.08;;;19.50;88.20;;;;;;5070688;28;20532;-51
2022/09/15 09:58:51;;;;;;;7.43;1.00;;;19.60;87.90;;;;;;5048413;28;20100;-49
2022/09/15 10:01:19;;;;;;;4.60;1.13;;;19.60;87.10;;;;;;5056935;28;20045;-50
2022/09/15 10:03:45;;;;;;;3.40;0.70;;;19.50;86.20;;;;;;5074891;28;20135;-49
2022/09/15 10:06:13;;;;;;;7.65;0.98;;;19.60;85.90;;;;;;5075441;28;20443;-50
2022/09/15 10:08:52;;;;;;;5.18;0.73;;;19.50;85.30;;;;;;5074342;28;20053;-45
2022/09/15 10:11:19;;;;;;;4.90;0.60;;;19.60;85.40;;;;;;5057534;28;20060;-51
2022/09/15 10:13:52;;;;;;;4.72;0.90;;;19.60;85.10;;;;;;5075469;28;20052;-50
2022/09/15 10:16:19;;;;;;;3.88;1.00;;;19.60;84.50;;;;;;5075238;28;20056;-48
2022/09/15 10:18:45;;;;;;;5.40;0.82;;;19.70;85.00;;;;;;5072963;28;20472;-49
2022/09/15 10:21:13;;;;;;;5.32;0.80;;;19.70;85.20;;;;;;5057193;28;20467;-49
2022/09/15 10:23:41;;;;;;;4.88;1.00;;;19.80;85.00;;;;;;5074990;28;20194;-51
2022/09/15 10:26:32;;;;;;;4.05;0.60;;;20.00;85.50;;;;;;5075435;28;20060;-47
2022/09/15 10:29:12;;;;;;;6.60;0.80;;;20.30;85.70;;;;;;5073556;28;20049;-46
2022/09/15 10:31:39;;;;;;;5.88;0.90;;;20.40;85.10;;;;;;5073840;28;20059;-44
2022/09/15 10:34:25;;;;;;;2.90;0.70;;;20.50;84.10;;;;;;5074734;28;20098;-46
2022/09/15 10:36:53;;;;;;;4.90;1.30;;;20.70;82.50;;;;;;5055992;28;20385;-50
2022/09/15 10:39:25;;;;;;;6.03;0.82;;;20.70;82.00;;;;;;5056891;28;20045;-47
2022/09/15 10:41:53;;;;;;;6.65;1.25;;;20.60;81.10;;;;;;5085457;28;20132;-50
2022/09/15 10:44:29;;;;;;;2.95;0.80;;;20.60;81.60;;;;;;5074747;28;20084;-48
2022/09/15 10:46:58;;;;;;;4.40;1.52;;;20.70;81.60;;;;;;5074621;28;20132;-47
2022/09/15 10:49:33;;;;;;;6.43;0.98;;;20.70;82.40;;;;;;5074955;28;20056;-52
2022/09/15 10:52:05;;;;;;;12.48;1.08;;;20.70;82.80;;;;;;5071679;28;20088;-49
2022/09/15 10:54:45;;;;;;;7.00;1.25;;;20.60;84.10;;;;;;5074557;28;20467;-50
2022/09/15 10:57:20;;;;;;;4.80;1.00;;;20.40;86.70;;;;;;5042054;28;20118;-55
2022/09/15 10:59:51;;;;;;;8.65;1.10;;;20.10;88.50;;;;;;5054642;28;20148;-57
2022/09/15 11:02:44;;;;;;;9.93;1.15;;;19.90;90.00;;;;;;5050865;28;20132;-49
2022/09/15 11:05:23;;;;;;;5.20;1.20;;;19.70;90.80;;;;;;5035837;28;20056;-49
2022/09/15 11:08:07;;;;;;;4.93;0.85;;;19.60;91.20;;;;;;5052888;28;20055;-48
2022/09/15 11:10:36;;;;;;;5.00;0.98;;;19.50;91.60;;;;;;5049205;28;20509;-45
2022/09/15 11:13:06;;;;;;;4.95;1.00;;;19.40;91.90;;;;;;5036632;28;20045;-46
2022/09/15 11:15:39;;;;;;;5.10;1.08;;;19.50;92.30;;;;;;5052629;28;20052;-45
2022/09/15 11:18:16;;;;;;;4.28;1.00;;;19.70;92.20;;;;;;5050929;28;20111;-45
2022/09/15 11:21:15;;;;;;;5.75;1.08;;;19.80;92.30;;;;;;5045279;28;20084;-47
2022/09/15 11:23:43;;;;;;;7.25;1.25;;;19.80;92.20;;;;;;5028318;28;20460;-44
2022/09/15 11:26:12;;;;;;;3.70;1.00;;;19.70;92.30;;;;;;5036041;28;20084;-46
2022/09/15 11:28:41;;;;;;;7.20;1.48;;;19.60;92.10;;;;;;5041998;28;20060;-46
2022/09/15 11:31:14;;;;;;;5.60;1.52;;;19.40;92.40;;;;;;5067175;28;20123;-56
2022/09/15 11:33:43;;;;;;;5.40;1.30;;;19.20;92.90;;;;;;5047341;28;20049;-56
2022/09/15 11:36:11;;;;;;;7.28;1.45;;;19.10;93.50;;;;;;5053784;28;20107;-55
2022/09/15 11:38:41;;;;;;;8.13;1.50;;;19.00;94.00;;;;;;5051587;28;20053;-53
2022/09/15 11:41:15;;;;;;;9.00;1.52;;;19.00;94.60;;;;;;5051694;28;20063;-52
2022/09/15 11:43:45;;;;;;;7.93;1.40;;;19.10;94.30;;;;;;5053428;28;20057;-47
2022/09/15 11:46:15;;;;;;;9.15;1.33;;;19.30;94.80;;;;;;5050179;28;20041;-47
2022/09/15 11:48:43;;;;;;;5.45;1.20;;;19.60;94.40;;;;;;5050754;28;20131;-46
2022/09/15 11:51:10;;;;;;;8.98;1.17;;;19.70;94.00;;;;;;5027936;28;20132;-49
2022/09/15 11:53:38;;;;;;;7.88;1.20;;;19.90;93.40;;;;;;5053147;28;20091;-48
2022/09/15 11:56:13;;;;;;;5.85;0.90;;;19.90;93.40;;;;;;5043602;28;20052;-47
2022/09/15 11:58:50;;;;;;;3.83;0.88;;;19.80;92.20;;;;;;5043757;28;20414;-46
2022/09/15 12:01:19;;;;;;;6.35;1.00;;;19.70;92.20;;;;;;5045306;28;20099;-48
2022/09/15 12:04:04;;;;;;;5.28;0.90;;;19.80;92.00;;;;;;5052510;28;20072;-48
2022/09/15 12:06:33;;;;;;;5.40;1.25;;;19.90;92.30;;;;;;5022152;28;20056;-46
2022/09/15 12:09:00;;;;;;;6.38;1.30;;;20.10;92.20;;;;;;5035603;28;20128;-48
2022/09/15 12:11:29;;;;;;;5.82;1.10;;;20.20;91.80;;;;;;5050974;28;20061;-47
2022/09/15 12:13:55;;;;;;;9.15;1.33;;;20.20;91.50;;;;;;5042923;28;20067;-47
2022/09/15 12:16:24;;;;;;;7.80;1.33;;;20.20;91.40;;;;;;5051884;28;20056;-48
2022/09/15 12:18:52;;;;;;;5.32;1.02;;;20.20;91.30;;;;;;5052238;28;20128;-47
2022/09/15 12:21:21;;;;;;;5.38;1.15;;;20.10;91.30;;;;;;5052806;28;20041;-48
2022/09/15 12:23:52;;;;;;;5.13;0.80;;;20.00;91.20;;;;;;5028798;28;20474;-49
2022/09/15 12:26:19;;;;;;;3.53;0.90;;;19.90;91.10;;;;;;5040662;28;20453;-47
2022/09/15 12:29:01;;;;;;;5.65;0.88;;;19.80;91.20;;;;;;5052927;28;20132;-49
2022/09/15 12:31:36;;;;;;;4.10;0.77;;;19.90;90.80;;;;;;5038287;28;20405;-46
2022/09/15 12:34:05;;;;;;;8.80;0.68;;;20.00;88.90;;;;;;5044222;28;20508;-45
2022/09/15 12:36:37;;;;;;;2.50;0.60;;;20.00;89.40;;;;;;5047746;28;20401;-46
2022/09/15 12:39:05;;;;;;;4.10;0.70;;;20.00;88.10;;;;;;5029062;28;20052;-50
2022/09/15 12:41:32;;;;;;;4.20;0.85;;;20.10;87.40;;;;;;5050331;28;20076;-51
2022/09/15 12:44:01;;;;;;;3.63;0.55;;;20.10;86.40;;;;;;5032498;28;20136;-50
2022/09/15 12:46:28;;;;;;;2.35;0.75;;;20.00;85.30;;;;;;5048807;28;20128;-51
2022/09/15 12:49:01;;;;;;;3.25;0.70;;;20.00;85.90;;;;;;5049478;28;20045;-51
2022/09/15 12:51:28;;;;;;;2.25;0.70;;;20.10;85.70;;;;;;5050561;28;20487;-47
2022/09/15 12:53:56;;;;;;;3.72;0.95;;;20.10;85.70;;;;;;5042035;28;20049;-47
2022/09/15 12:56:24;;;;;;;4.40;0.90;;;20.10;85.70;;;;;;5041293;28;20049;-45
2022/09/15 12:58:51;;;;;;;2.42;0.60;;;20.00;85.10;;;;;;5051389;28;20092;-50